sensor_id;sensor_type;location;lat;lon;timestamp;temperature;humidity
20335;DHT22;10325;51.468;5.804;2023-03-25T00:00:36;18.20;59.50
20335;DHT22;10325;51.468;5.804;2023-03-25T00:03:15;18.10;59.50
20335;DHT22;10325;51.468;5.804;2023-03-25T00:05:47;18.20;59.50
20335;DHT22;10325;51.468;5.804;2023-03-25T00:08:24;18.10;59.40
20335;DHT22;10325;51.468;5.804;2023-03-25T00:10:57;18.10;59.40
20335;DHT22;10325;51.468;5.804;2023-03-25T00:13:25;18.10;59.50
20335;DHT22;10325;51.468;5.804;2023-03-25T00:16:10;18.10;59.50
20335;DHT22;10325;51.468;5.804;2023-03-25T00:18:41;18.10;59.40
20335;DHT22;10325;51.468;5.804;2023-03-25T00:21:09;18.10;59.40
20335;DHT22;10325;51.468;5.804;2023-03-25T00:23:41;18.10;59.50
20335;DHT22;10325;51.468;5.804;2023-03-25T00:26:12;18.00;59.50
20335;DHT22;10325;51.468;5.804;2023-03-25T00:28:40;18.00;59.50
20335;DHT22;10325;51.468;5.804;2023-03-25T00:31:15;18.00;59.50
20335;DHT22;10325;51.468;5.804;2023-03-25T00:33:47;18.10;59.50
20335;DHT22;10325;51.468;5.804;2023-03-25T00:36:21;18.00;59.50
20335;DHT22;10325;51.468;5.804;2023-03-25T00:38:50;18.00;59.50
20335;DHT22;10325;51.468;5.804;2023-03-25T00:41:23;18.00;59.40
20335;DHT22;10325;51.468;5.804;2023-03-25T00:44:00;18.00;59.50
20335;DHT22;10325;51.468;5.804;2023-03-25T00:46:31;18.00;59.50
20335;DHT22;10325;51.468;5.804;2023-03-25T00:49:02;18.00;59.40
20335;DHT22;10325;51.468;5.804;2023-03-25T00:51:34;18.00;59.50
20335;DHT22;10325;51.468;5.804;2023-03-25T00:54:22;18.00;59.50
20335;DHT22;10325;51.468;5.804;2023-03-25T00:56:51;18.00;59.50
20335;DHT22;10325;51.468;5.804;2023-03-25T00:59:21;18.00;59.50
20335;DHT22;10325;51.468;5.804;2023-03-25T01:01:51;18.00;59.50
20335;DHT22;10325;51.468;5.804;2023-03-25T01:04:28;18.00;59.50
20335;DHT22;10325;51.468;5.804;2023-03-25T01:06:58;18.00;59.50
20335;DHT22;10325;51.468;5.804;2023-03-25T01:09:29;18.00;59.50
20335;DHT22;10325;51.468;5.804;2023-03-25T01:11:59;18.00;59.60
20335;DHT22;10325;51.468;5.804;2023-03-25T01:14:29;18.00;59.50
20335;DHT22;10325;51.468;5.804;2023-03-25T01:16:59;18.00;59.60
20335;DHT22;10325;51.468;5.804;2023-03-25T01:19:29;18.00;59.60
20335;DHT22;10325;51.468;5.804;2023-03-25T01:21:59;18.00;59.60
20335;DHT22;10325;51.468;5.804;2023-03-25T01:24:31;17.90;59.50
20335;DHT22;10325;51.468;5.804;2023-03-25T01:27:00;18.00;59.60
20335;DHT22;10325;51.468;5.804;2023-03-25T01:29:29;18.00;59.60
20335;DHT22;10325;51.468;5.804;2023-03-25T01:32:04;17.90;59.60
20335;DHT22;10325;51.468;5.804;2023-03-25T01:34:35;17.90;59.60
20335;DHT22;10325;51.468;5.804;2023-03-25T01:37:10;17.90;59.60
20335;DHT22;10325;51.468;5.804;2023-03-25T01:39:39;18.00;59.60
20335;DHT22;10325;51.468;5.804;2023-03-25T01:42:12;17.90;59.60
20335;DHT22;10325;51.468;5.804;2023-03-25T01:47:18;17.90;59.60
20335;DHT22;10325;51.468;5.804;2023-03-25T01:49:50;17.90;59.60
20335;DHT22;10325;51.468;5.804;2023-03-25T01:52:23;17.90;59.60
20335;DHT22;10325;51.468;5.804;2023-03-25T01:54:59;17.90;59.60
20335;DHT22;10325;51.468;5.804;2023-03-25T01:57:29;17.90;59.60
20335;DHT22;10325;51.468;5.804;2023-03-25T02:00:02;17.90;59.70
20335;DHT22;10325;51.468;5.804;2023-03-25T02:02:39;17.90;59.70
20335;DHT22;10325;51.468;5.804;2023-03-25T02:05:19;17.90;59.60
20335;DHT22;10325;51.468;5.804;2023-03-25T02:07:52;17.90;59.60
20335;DHT22;10325;51.468;5.804;2023-03-25T02:10:28;17.90;59.60
20335;DHT22;10325;51.468;5.804;2023-03-25T02:13:05;17.80;59.60
20335;DHT22;10325;51.468;5.804;2023-03-25T02:31:21;17.80;59.50
20335;DHT22;10325;51.468;5.804;2023-03-25T02:34:11;17.80;59.70
20335;DHT22;10325;51.468;5.804;2023-03-25T02:40:14;17.80;59.60
20335;DHT22;10325;51.468;5.804;2023-03-25T02:46:03;17.80;59.60
20335;DHT22;10325;51.468;5.804;2023-03-25T02:48:48;17.70;59.60
20335;DHT22;10325;51.468;5.804;2023-03-25T02:51:52;17.70;59.60
20335;DHT22;10325;51.468;5.804;2023-03-25T02:54:23;17.80;59.50
20335;DHT22;10325;51.468;5.804;2023-03-25T02:56:54;17.80;59.60
20335;DHT22;10325;51.468;5.804;2023-03-25T02:59:30;17.80;59.50
20335;DHT22;10325;51.468;5.804;2023-03-25T03:02:05;17.70;59.50
20335;DHT22;10325;51.468;5.804;2023-03-25T03:04:53;17.70;59.40
20335;DHT22;10325;51.468;5.804;2023-03-25T03:07:31;17.80;59.40
20335;DHT22;10325;51.468;5.804;2023-03-25T03:10:15;17.80;59.40
20335;DHT22;10325;51.468;5.804;2023-03-25T03:13:20;17.70;59.30
20335;DHT22;10325;51.468;5.804;2023-03-25T03:16:15;17.70;59.30
20335;DHT22;10325;51.468;5.804;2023-03-25T03:18:56;17.80;59.40
20335;DHT22;10325;51.468;5.804;2023-03-25T03:21:51;17.70;59.30
20335;DHT22;10325;51.468;5.804;2023-03-25T03:24:35;17.70;59.30
20335;DHT22;10325;51.468;5.804;2023-03-25T03:30:12;17.70;59.30
20335;DHT22;10325;51.468;5.804;2023-03-25T03:32:51;17.70;59.30
20335;DHT22;10325;51.468;5.804;2023-03-25T03:35:30;17.70;59.30
20335;DHT22;10325;51.468;5.804;2023-03-25T03:38:12;17.70;59.30
20335;DHT22;10325;51.468;5.804;2023-03-25T03:40:55;17.80;59.30
20335;DHT22;10325;51.468;5.804;2023-03-25T03:43:44;17.70;59.30
20335;DHT22;10325;51.468;5.804;2023-03-25T03:46:28;17.70;59.20
20335;DHT22;10325;51.468;5.804;2023-03-25T03:49:00;17.70;59.20
20335;DHT22;10325;51.468;5.804;2023-03-25T03:51:36;17.70;59.20
20335;DHT22;10325;51.468;5.804;2023-03-25T03:54:16;17.70;59.20
20335;DHT22;10325;51.468;5.804;2023-03-25T03:57:07;17.70;59.30
20335;DHT22;10325;51.468;5.804;2023-03-25T04:00:12;17.70;59.20
20335;DHT22;10325;51.468;5.804;2023-03-25T04:03:12;17.70;59.30
20335;DHT22;10325;51.468;5.804;2023-03-25T04:05:57;17.70;59.20
20335;DHT22;10325;51.468;5.804;2023-03-25T04:08:33;17.70;59.30
20335;DHT22;10325;51.468;5.804;2023-03-25T04:11:07;17.70;59.90
20335;DHT22;10325;51.468;5.804;2023-03-25T04:13:43;17.70;59.30
20335;DHT22;10325;51.468;5.804;2023-03-25T04:16:25;17.60;59.20
20335;DHT22;10325;51.468;5.804;2023-03-25T04:18:57;17.70;59.30
20335;DHT22;10325;51.468;5.804;2023-03-25T04:21:26;17.70;59.40
20335;DHT22;10325;51.468;5.804;2023-03-25T04:24:02;17.60;59.30
20335;DHT22;10325;51.468;5.804;2023-03-25T04:26:31;17.70;59.30
20335;DHT22;10325;51.468;5.804;2023-03-25T04:29:03;17.70;59.30
20335;DHT22;10325;51.468;5.804;2023-03-25T04:31:35;17.70;59.30
20335;DHT22;10325;51.468;5.804;2023-03-25T04:34:08;17.70;59.30
20335;DHT22;10325;51.468;5.804;2023-03-25T04:36:38;17.70;59.30
20335;DHT22;10325;51.468;5.804;2023-03-25T04:39:11;17.70;59.40
20335;DHT22;10325;51.468;5.804;2023-03-25T04:41:41;17.70;59.30
20335;DHT22;10325;51.468;5.804;2023-03-25T04:44:16;17.70;59.40
20335;DHT22;10325;51.468;5.804;2023-03-25T04:46:46;17.70;59.40
20335;DHT22;10325;51.468;5.804;2023-03-25T04:49:22;17.70;59.40
20335;DHT22;10325;51.468;5.804;2023-03-25T04:51:53;17.60;59.40
20335;DHT22;10325;51.468;5.804;2023-03-25T04:54:36;17.60;59.40
20335;DHT22;10325;51.468;5.804;2023-03-25T04:57:11;17.60;59.40
20335;DHT22;10325;51.468;5.804;2023-03-25T04:59:41;17.60;59.40
20335;DHT22;10325;51.468;5.804;2023-03-25T05:02:14;17.60;59.40
20335;DHT22;10325;51.468;5.804;2023-03-25T05:04:44;17.60;59.30
20335;DHT22;10325;51.468;5.804;2023-03-25T05:07:19;17.60;59.30
20335;DHT22;10325;51.468;5.804;2023-03-25T05:09:49;17.60;59.30
20335;DHT22;10325;51.468;5.804;2023-03-25T05:12:21;17.60;59.30
20335;DHT22;10325;51.468;5.804;2023-03-25T05:14:50;17.60;59.40
20335;DHT22;10325;51.468;5.804;2023-03-25T05:17:19;17.60;59.40
20335;DHT22;10325;51.468;5.804;2023-03-25T05:19:51;17.60;59.40
20335;DHT22;10325;51.468;5.804;2023-03-25T05:22:22;17.60;59.40
20335;DHT22;10325;51.468;5.804;2023-03-25T05:24:52;17.60;59.40
20335;DHT22;10325;51.468;5.804;2023-03-25T05:27:24;17.60;59.30
20335;DHT22;10325;51.468;5.804;2023-03-25T05:29:54;17.60;59.30
20335;DHT22;10325;51.468;5.804;2023-03-25T05:32:48;17.60;59.30
20335;DHT22;10325;51.468;5.804;2023-03-25T05:35:25;17.60;59.30
20335;DHT22;10325;51.468;5.804;2023-03-25T05:38:06;17.60;59.30
20335;DHT22;10325;51.468;5.804;2023-03-25T05:40:47;17.60;59.20
20335;DHT22;10325;51.468;5.804;2023-03-25T05:43:19;17.50;59.20
20335;DHT22;10325;51.468;5.804;2023-03-25T05:45:53;17.50;59.10
20335;DHT22;10325;51.468;5.804;2023-03-25T05:48:24;17.50;59.10
20335;DHT22;10325;51.468;5.804;2023-03-25T05:50:54;17.60;59.10
20335;DHT22;10325;51.468;5.804;2023-03-25T05:53:28;17.60;59.00
20335;DHT22;10325;51.468;5.804;2023-03-25T05:56:00;17.50;59.00
20335;DHT22;10325;51.468;5.804;2023-03-25T05:58:31;17.60;59.00
20335;DHT22;10325;51.468;5.804;2023-03-25T06:01:08;17.50;58.90
20335;DHT22;10325;51.468;5.804;2023-03-25T06:04:00;17.60;58.90
20335;DHT22;10325;51.468;5.804;2023-03-25T06:06:32;17.50;58.90
20335;DHT22;10325;51.468;5.804;2023-03-25T06:09:02;17.50;58.90
20335;DHT22;10325;51.468;5.804;2023-03-25T06:11:31;17.50;58.80
20335;DHT22;10325;51.468;5.804;2023-03-25T06:14:17;17.50;58.70
20335;DHT22;10325;51.468;5.804;2023-03-25T06:16:49;17.50;58.70
20335;DHT22;10325;51.468;5.804;2023-03-25T06:19:20;17.50;58.70
20335;DHT22;10325;51.468;5.804;2023-03-25T06:21:56;17.50;58.60
20335;DHT22;10325;51.468;5.804;2023-03-25T06:24:25;17.50;58.60
20335;DHT22;10325;51.468;5.804;2023-03-25T06:27:01;17.50;58.60
20335;DHT22;10325;51.468;5.804;2023-03-25T06:29:35;17.50;58.50
20335;DHT22;10325;51.468;5.804;2023-03-25T06:32:14;17.50;58.60
20335;DHT22;10325;51.468;5.804;2023-03-25T06:34:45;17.50;58.60
20335;DHT22;10325;51.468;5.804;2023-03-25T06:37:17;17.50;58.60
20335;DHT22;10325;51.468;5.804;2023-03-25T06:39:46;17.50;58.50
20335;DHT22;10325;51.468;5.804;2023-03-25T06:42:19;17.50;58.50
20335;DHT22;10325;51.468;5.804;2023-03-25T06:44:49;17.50;58.50
20335;DHT22;10325;51.468;5.804;2023-03-25T06:47:21;17.50;58.60
20335;DHT22;10325;51.468;5.804;2023-03-25T06:49:53;17.50;58.50
20335;DHT22;10325;51.468;5.804;2023-03-25T06:52:22;17.50;58.50
20335;DHT22;10325;51.468;5.804;2023-03-25T06:54:54;17.50;58.50
20335;DHT22;10325;51.468;5.804;2023-03-25T06:57:23;17.50;58.50
20335;DHT22;10325;51.468;5.804;2023-03-25T06:59:51;17.50;58.50
20335;DHT22;10325;51.468;5.804;2023-03-25T07:02:21;17.50;58.50
20335;DHT22;10325;51.468;5.804;2023-03-25T07:04:50;17.50;58.50
20335;DHT22;10325;51.468;5.804;2023-03-25T07:07:24;17.50;58.40
20335;DHT22;10325;51.468;5.804;2023-03-25T07:09:57;17.50;58.40
20335;DHT22;10325;51.468;5.804;2023-03-25T07:12:26;17.50;58.40
20335;DHT22;10325;51.468;5.804;2023-03-25T07:14:58;17.40;58.30
20335;DHT22;10325;51.468;5.804;2023-03-25T07:17:26;17.40;58.30
20335;DHT22;10325;51.468;5.804;2023-03-25T07:19:54;17.40;58.30
20335;DHT22;10325;51.468;5.804;2023-03-25T07:22:35;17.50;58.40
20335;DHT22;10325;51.468;5.804;2023-03-25T07:25:03;17.50;58.30
20335;DHT22;10325;51.468;5.804;2023-03-25T07:27:35;17.50;58.30
20335;DHT22;10325;51.468;5.804;2023-03-25T07:30:08;17.40;58.30
20335;DHT22;10325;51.468;5.804;2023-03-25T07:32:38;17.40;58.30
20335;DHT22;10325;51.468;5.804;2023-03-25T07:35:07;17.40;58.30
20335;DHT22;10325;51.468;5.804;2023-03-25T07:37:40;17.50;58.30
20335;DHT22;10325;51.468;5.804;2023-03-25T07:40:12;17.50;58.30
20335;DHT22;10325;51.468;5.804;2023-03-25T07:42:46;17.40;58.30
20335;DHT22;10325;51.468;5.804;2023-03-25T07:45:14;17.50;58.30
20335;DHT22;10325;51.468;5.804;2023-03-25T07:47:42;17.50;58.30
20335;DHT22;10325;51.468;5.804;2023-03-25T07:50:21;17.40;58.20
20335;DHT22;10325;51.468;5.804;2023-03-25T07:52:54;17.50;58.30
20335;DHT22;10325;51.468;5.804;2023-03-25T07:55:27;17.40;58.20
20335;DHT22;10325;51.468;5.804;2023-03-25T07:57:57;17.50;58.30
20335;DHT22;10325;51.468;5.804;2023-03-25T08:00:48;17.50;58.30
20335;DHT22;10325;51.468;5.804;2023-03-25T08:03:20;17.50;58.30
20335;DHT22;10325;51.468;5.804;2023-03-25T08:05:49;17.50;58.30
20335;DHT22;10325;51.468;5.804;2023-03-25T08:08:19;17.50;58.30
20335;DHT22;10325;51.468;5.804;2023-03-25T08:10:50;17.50;58.30
20335;DHT22;10325;51.468;5.804;2023-03-25T08:13:22;17.40;58.20
20335;DHT22;10325;51.468;5.804;2023-03-25T08:15:51;17.50;58.30
20335;DHT22;10325;51.468;5.804;2023-03-25T08:18:20;17.50;58.30
20335;DHT22;10325;51.468;5.804;2023-03-25T08:20:52;17.50;58.30
20335;DHT22;10325;51.468;5.804;2023-03-25T08:23:23;17.40;58.20
20335;DHT22;10325;51.468;5.804;2023-03-25T08:25:56;17.50;58.30
20335;DHT22;10325;51.468;5.804;2023-03-25T08:28:25;17.40;58.30
20335;DHT22;10325;51.468;5.804;2023-03-25T08:30:55;17.50;58.30
20335;DHT22;10325;51.468;5.804;2023-03-25T08:33:25;17.50;58.30
20335;DHT22;10325;51.468;5.804;2023-03-25T08:35:57;17.50;58.30
20335;DHT22;10325;51.468;5.804;2023-03-25T08:38:27;17.50;58.30
20335;DHT22;10325;51.468;5.804;2023-03-25T08:41:02;17.50;58.30
20335;DHT22;10325;51.468;5.804;2023-03-25T08:43:35;17.50;58.20
20335;DHT22;10325;51.468;5.804;2023-03-25T08:46:07;17.50;58.20
20335;DHT22;10325;51.468;5.804;2023-03-25T08:48:38;17.50;58.30
20335;DHT22;10325;51.468;5.804;2023-03-25T08:51:08;17.50;58.30
20335;DHT22;10325;51.468;5.804;2023-03-25T08:53:36;17.50;58.30
20335;DHT22;10325;51.468;5.804;2023-03-25T08:56:09;17.50;58.30
20335;DHT22;10325;51.468;5.804;2023-03-25T08:58:37;17.50;58.30
20335;DHT22;10325;51.468;5.804;2023-03-25T09:01:06;17.50;58.30
20335;DHT22;10325;51.468;5.804;2023-03-25T09:03:39;17.50;58.30
20335;DHT22;10325;51.468;5.804;2023-03-25T09:06:10;17.50;58.30
20335;DHT22;10325;51.468;5.804;2023-03-25T09:08:43;17.50;58.30
20335;DHT22;10325;51.468;5.804;2023-03-25T09:11:18;17.50;58.30
20335;DHT22;10325;51.468;5.804;2023-03-25T09:14:04;17.50;58.30
20335;DHT22;10325;51.468;5.804;2023-03-25T09:16:33;17.50;58.30
20335;DHT22;10325;51.468;5.804;2023-03-25T09:19:03;17.50;58.30
20335;DHT22;10325;51.468;5.804;2023-03-25T09:21:35;17.50;58.30
20335;DHT22;10325;51.468;5.804;2023-03-25T09:24:19;17.50;58.30
20335;DHT22;10325;51.468;5.804;2023-03-25T09:26:53;17.50;58.30
20335;DHT22;10325;51.468;5.804;2023-03-25T09:29:26;17.50;58.40
20335;DHT22;10325;51.468;5.804;2023-03-25T09:31:54;17.60;58.30
20335;DHT22;10325;51.468;5.804;2023-03-25T09:34:27;17.50;58.20
20335;DHT22;10325;51.468;5.804;2023-03-25T09:36:57;17.50;58.20
20335;DHT22;10325;51.468;5.804;2023-03-25T09:39:30;17.50;58.10
20335;DHT22;10325;51.468;5.804;2023-03-25T09:45:52;17.50;58.10
20335;DHT22;10325;51.468;5.804;2023-03-25T09:48:42;17.50;58.20
20335;DHT22;10325;51.468;5.804;2023-03-25T09:51:24;17.50;58.10
20335;DHT22;10325;51.468;5.804;2023-03-25T09:54:26;17.50;58.20
20335;DHT22;10325;51.468;5.804;2023-03-25T09:57:06;17.50;58.20
20335;DHT22;10325;51.468;5.804;2023-03-25T09:59:48;17.50;58.30
20335;DHT22;10325;51.468;5.804;2023-03-25T10:02:37;17.50;58.30
20335;DHT22;10325;51.468;5.804;2023-03-25T10:05:47;17.60;58.30
20335;DHT22;10325;51.468;5.804;2023-03-25T10:12:00;17.50;58.20
20335;DHT22;10325;51.468;5.804;2023-03-25T10:17:59;17.60;58.30
20335;DHT22;10325;51.468;5.804;2023-03-25T10:21:13;17.60;58.20
20335;DHT22;10325;51.468;5.804;2023-03-25T10:24:19;17.60;58.30
20335;DHT22;10325;51.468;5.804;2023-03-25T10:27:02;17.50;58.90
20335;DHT22;10325;51.468;5.804;2023-03-25T10:29:39;17.50;58.70
20335;DHT22;10325;51.468;5.804;2023-03-25T10:32:27;17.50;58.50
20335;DHT22;10325;51.468;5.804;2023-03-25T10:35:03;17.60;58.60
20335;DHT22;10325;51.468;5.804;2023-03-25T10:37:34;17.60;58.70
20335;DHT22;10325;51.468;5.804;2023-03-25T10:40:47;17.50;58.60
20335;DHT22;10325;51.468;5.804;2023-03-25T10:43:35;17.60;58.50
20335;DHT22;10325;51.468;5.804;2023-03-25T10:49:07;17.50;58.50
20335;DHT22;10325;51.468;5.804;2023-03-25T10:51:41;17.60;58.50
20335;DHT22;10325;51.468;5.804;2023-03-25T10:54:12;17.60;58.40
20335;DHT22;10325;51.468;5.804;2023-03-25T10:56:54;17.60;58.40
20335;DHT22;10325;51.468;5.804;2023-03-25T11:02:21;17.60;59.00
20335;DHT22;10325;51.468;5.804;2023-03-25T11:05:07;17.60;58.50
20335;DHT22;10325;51.468;5.804;2023-03-25T11:07:40;17.60;58.40
20335;DHT22;10325;51.468;5.804;2023-03-25T11:10:24;17.60;58.30
20335;DHT22;10325;51.468;5.804;2023-03-25T11:12:53;17.60;58.40
20335;DHT22;10325;51.468;5.804;2023-03-25T11:15:42;17.60;58.40
20335;DHT22;10325;51.468;5.804;2023-03-25T11:18:34;17.60;58.30
20335;DHT22;10325;51.468;5.804;2023-03-25T11:21:18;17.60;58.40
20335;DHT22;10325;51.468;5.804;2023-03-25T11:23:54;17.60;59.20
20335;DHT22;10325;51.468;5.804;2023-03-25T11:26:41;17.60;58.60
20335;DHT22;10325;51.468;5.804;2023-03-25T11:29:19;17.60;58.60
20335;DHT22;10325;51.468;5.804;2023-03-25T11:32:05;17.60;58.50
20335;DHT22;10325;51.468;5.804;2023-03-25T11:34:45;17.60;58.80
20335;DHT22;10325;51.468;5.804;2023-03-25T11:37:28;17.60;58.70
20335;DHT22;10325;51.468;5.804;2023-03-25T11:40:05;17.70;58.70
20335;DHT22;10325;51.468;5.804;2023-03-25T11:42:51;17.60;58.60
20335;DHT22;10325;51.468;5.804;2023-03-25T11:45:35;17.60;58.60
20335;DHT22;10325;51.468;5.804;2023-03-25T11:48:34;17.70;58.60
20335;DHT22;10325;51.468;5.804;2023-03-25T11:51:18;17.70;58.60
20335;DHT22;10325;51.468;5.804;2023-03-25T11:53:58;17.70;58.50
20335;DHT22;10325;51.468;5.804;2023-03-25T11:56:40;17.60;58.40
20335;DHT22;10325;51.468;5.804;2023-03-25T11:59:35;17.70;58.40
20335;DHT22;10325;51.468;5.804;2023-03-25T12:02:27;17.70;58.40
20335;DHT22;10325;51.468;5.804;2023-03-25T12:05:14;17.70;58.30
20335;DHT22;10325;51.468;5.804;2023-03-25T12:07:50;17.70;58.30
20335;DHT22;10325;51.468;5.804;2023-03-25T12:10:39;17.70;58.40
20335;DHT22;10325;51.468;5.804;2023-03-25T12:17:18;17.70;58.20
20335;DHT22;10325;51.468;5.804;2023-03-25T12:28:28;17.70;58.00
20335;DHT22;10325;51.468;5.804;2023-03-25T12:34:36;17.70;57.90
20335;DHT22;10325;51.468;5.804;2023-03-25T12:46:26;17.80;58.10
20335;DHT22;10325;51.468;5.804;2023-03-25T12:52:15;17.70;58.10
20335;DHT22;10325;51.468;5.804;2023-03-25T12:54:57;17.80;58.10
20335;DHT22;10325;51.468;5.804;2023-03-25T13:09:26;17.80;58.20
20335;DHT22;10325;51.468;5.804;2023-03-25T13:21:20;17.70;58.20
20335;DHT22;10325;51.468;5.804;2023-03-25T13:23:48;17.80;58.30
20335;DHT22;10325;51.468;5.804;2023-03-25T13:26:23;17.70;58.20
20335;DHT22;10325;51.468;5.804;2023-03-25T13:29:01;17.70;58.20
20335;DHT22;10325;51.468;5.804;2023-03-25T13:31:38;17.70;58.20
20335;DHT22;10325;51.468;5.804;2023-03-25T13:34:48;17.80;58.20
20335;DHT22;10325;51.468;5.804;2023-03-25T13:45:49;17.80;58.40
20335;DHT22;10325;51.468;5.804;2023-03-25T13:51:39;17.80;58.50
20335;DHT22;10325;51.468;5.804;2023-03-25T13:54:22;17.80;58.40
20335;DHT22;10325;51.468;5.804;2023-03-25T14:03:03;17.80;58.50
20335;DHT22;10325;51.468;5.804;2023-03-25T14:12:56;17.80;58.60
20335;DHT22;10325;51.468;5.804;2023-03-25T14:15:02;17.80;58.40
20335;DHT22;10325;51.468;5.804;2023-03-25T14:17:40;17.80;58.50
20335;DHT22;10325;51.468;5.804;2023-03-25T14:20:26;17.80;58.40
20335;DHT22;10325;51.468;5.804;2023-03-25T14:23:03;17.80;58.40
20335;DHT22;10325;51.468;5.804;2023-03-25T14:25:47;17.80;58.40
20335;DHT22;10325;51.468;5.804;2023-03-25T14:28:30;17.80;58.50
20335;DHT22;10325;51.468;5.804;2023-03-25T14:42:23;17.80;58.60
20335;DHT22;10325;51.468;5.804;2023-03-25T14:47:52;17.80;58.60
20335;DHT22;10325;51.468;5.804;2023-03-25T14:50:29;17.80;58.80
20335;DHT22;10325;51.468;5.804;2023-03-25T14:53:03;17.80;58.80
20335;DHT22;10325;51.468;5.804;2023-03-25T14:55:44;17.80;58.80
20335;DHT22;10325;51.468;5.804;2023-03-25T14:58:28;17.80;58.60
20335;DHT22;10325;51.468;5.804;2023-03-25T15:01:04;17.80;58.80
20335;DHT22;10325;51.468;5.804;2023-03-25T15:03:41;17.80;58.70
20335;DHT22;10325;51.468;5.804;2023-03-25T15:06:35;17.80;58.60
20335;DHT22;10325;51.468;5.804;2023-03-25T15:09:11;17.80;58.60
20335;DHT22;10325;51.468;5.804;2023-03-25T15:11:50;17.80;58.60
20335;DHT22;10325;51.468;5.804;2023-03-25T15:14:41;17.80;58.60
20335;DHT22;10325;51.468;5.804;2023-03-25T15:17:46;17.80;58.60
20335;DHT22;10325;51.468;5.804;2023-03-25T15:20:27;17.90;58.50
20335;DHT22;10325;51.468;5.804;2023-03-25T15:26:36;17.80;58.50
20335;DHT22;10325;51.468;5.804;2023-03-25T15:32:19;17.80;58.60
20335;DHT22;10325;51.468;5.804;2023-03-25T15:35:31;17.80;58.60
20335;DHT22;10325;51.468;5.804;2023-03-25T15:41:15;17.80;58.50
20335;DHT22;10325;51.468;5.804;2023-03-25T15:44:27;17.80;58.50
20335;DHT22;10325;51.468;5.804;2023-03-25T15:53:18;17.80;58.40
20335;DHT22;10325;51.468;5.804;2023-03-25T15:56:30;17.80;58.50
20335;DHT22;10325;51.468;5.804;2023-03-25T15:59:25;17.80;58.50
20335;DHT22;10325;51.468;5.804;2023-03-25T16:02:01;17.80;58.50
20335;DHT22;10325;51.468;5.804;2023-03-25T16:04:41;17.70;58.60
20335;DHT22;10325;51.468;5.804;2023-03-25T16:07:13;17.80;58.60
20335;DHT22;10325;51.468;5.804;2023-03-25T16:09:47;17.80;58.70
20335;DHT22;10325;51.468;5.804;2023-03-25T16:12:24;17.80;58.60
20335;DHT22;10325;51.468;5.804;2023-03-25T16:14:53;17.70;58.60
20335;DHT22;10325;51.468;5.804;2023-03-25T16:17:31;17.80;58.60
20335;DHT22;10325;51.468;5.804;2023-03-25T16:20:00;17.80;58.60
20335;DHT22;10325;51.468;5.804;2023-03-25T16:22:34;17.70;58.60
20335;DHT22;10325;51.468;5.804;2023-03-25T16:25:13;17.80;58.60
20335;DHT22;10325;51.468;5.804;2023-03-25T16:27:46;17.70;58.70
20335;DHT22;10325;51.468;5.804;2023-03-25T16:30:37;17.70;58.60
20335;DHT22;10325;51.468;5.804;2023-03-25T16:33:11;17.80;58.70
20335;DHT22;10325;51.468;5.804;2023-03-25T16:36:08;17.70;58.80
20335;DHT22;10325;51.468;5.804;2023-03-25T16:38:43;17.70;59.00
20335;DHT22;10325;51.468;5.804;2023-03-25T16:41:14;17.70;59.10
20335;DHT22;10325;51.468;5.804;2023-03-25T16:43:58;17.70;59.00
20335;DHT22;10325;51.468;5.804;2023-03-25T16:46:31;17.70;58.90
20335;DHT22;10325;51.468;5.804;2023-03-25T16:49:11;17.70;58.90
20335;DHT22;10325;51.468;5.804;2023-03-25T16:51:48;17.70;59.50
20335;DHT22;10325;51.468;5.804;2023-03-25T16:54:42;17.70;58.80
20335;DHT22;10325;51.468;5.804;2023-03-25T16:57:24;17.70;58.70
20335;DHT22;10325;51.468;5.804;2023-03-25T16:59:54;17.70;58.80
20335;DHT22;10325;51.468;5.804;2023-03-25T17:02:47;17.70;58.80
20335;DHT22;10325;51.468;5.804;2023-03-25T17:05:22;17.70;58.90
20335;DHT22;10325;51.468;5.804;2023-03-25T17:08:06;17.70;58.90
20335;DHT22;10325;51.468;5.804;2023-03-25T17:10:51;17.70;58.90
20335;DHT22;10325;51.468;5.804;2023-03-25T17:13:57;17.70;59.00
20335;DHT22;10325;51.468;5.804;2023-03-25T17:16:30;17.70;59.00
20335;DHT22;10325;51.468;5.804;2023-03-25T17:19:06;17.70;58.90
20335;DHT22;10325;51.468;5.804;2023-03-25T17:22:04;17.70;58.90
20335;DHT22;10325;51.468;5.804;2023-03-25T17:24:40;17.70;58.90
20335;DHT22;10325;51.468;5.804;2023-03-25T17:27:33;17.70;58.90
20335;DHT22;10325;51.468;5.804;2023-03-25T17:30:20;17.60;58.90
20335;DHT22;10325;51.468;5.804;2023-03-25T17:32:50;17.70;59.10
20335;DHT22;10325;51.468;5.804;2023-03-25T17:35:30;17.60;59.10
20335;DHT22;10325;51.468;5.804;2023-03-25T17:38:01;17.70;59.10
20335;DHT22;10325;51.468;5.804;2023-03-25T17:40:34;17.70;59.10
20335;DHT22;10325;51.468;5.804;2023-03-25T17:43:04;17.70;59.10
20335;DHT22;10325;51.468;5.804;2023-03-25T17:45:33;17.70;59.10
20335;DHT22;10325;51.468;5.804;2023-03-25T17:48:15;17.60;59.10
20335;DHT22;10325;51.468;5.804;2023-03-25T17:50:51;17.70;59.10
20335;DHT22;10325;51.468;5.804;2023-03-25T17:53:25;17.70;59.10
20335;DHT22;10325;51.468;5.804;2023-03-25T17:56:01;17.70;59.10
20335;DHT22;10325;51.468;5.804;2023-03-25T17:58:31;17.70;59.40
20335;DHT22;10325;51.468;5.804;2023-03-25T18:01:06;17.70;59.50
20335;DHT22;10325;51.468;5.804;2023-03-25T18:03:38;17.70;59.60
20335;DHT22;10325;51.468;5.804;2023-03-25T18:06:13;17.70;59.50
20335;DHT22;10325;51.468;5.804;2023-03-25T18:08:46;17.70;59.50
20335;DHT22;10325;51.468;5.804;2023-03-25T18:11:15;17.70;59.40
20335;DHT22;10325;51.468;5.804;2023-03-25T18:13:43;17.70;59.30
20335;DHT22;10325;51.468;5.804;2023-03-25T18:16:20;17.70;59.30
20335;DHT22;10325;51.468;5.804;2023-03-25T18:18:55;17.70;59.30
20335;DHT22;10325;51.468;5.804;2023-03-25T18:21:24;17.70;59.30
20335;DHT22;10325;51.468;5.804;2023-03-25T18:23:56;17.70;59.30
20335;DHT22;10325;51.468;5.804;2023-03-25T18:26:25;17.70;59.30
20335;DHT22;10325;51.468;5.804;2023-03-25T18:29:15;17.60;59.10
20335;DHT22;10325;51.468;5.804;2023-03-25T18:31:44;17.60;59.10
20335;DHT22;10325;51.468;5.804;2023-03-25T18:34:16;17.70;59.20
20335;DHT22;10325;51.468;5.804;2023-03-25T18:36:53;17.70;59.10
20335;DHT22;10325;51.468;5.804;2023-03-25T18:39:28;17.70;59.10
20335;DHT22;10325;51.468;5.804;2023-03-25T18:41:58;17.70;59.10
20335;DHT22;10325;51.468;5.804;2023-03-25T18:44:29;17.70;59.10
20335;DHT22;10325;51.468;5.804;2023-03-25T18:47:00;17.70;59.10
20335;DHT22;10325;51.468;5.804;2023-03-25T18:49:29;17.70;59.10
20335;DHT22;10325;51.468;5.804;2023-03-25T18:52:00;17.70;59.00
20335;DHT22;10325;51.468;5.804;2023-03-25T18:54:30;17.70;59.10
20335;DHT22;10325;51.468;5.804;2023-03-25T18:56:58;17.60;59.00
20335;DHT22;10325;51.468;5.804;2023-03-25T18:59:32;17.60;59.00